Scroll down
FLIGHT INFORMATION
PMDG Flight Operations

PFO1973

At Arrival Gate

KROW
 KGYR
DATE: 2020-10-16
GATE: G1
GATE DEPARTURE: 17:51
TAKEOFF: 18:03
DATE: 2020-10-16
GATE:  -
LANDING: 19:15
GATE ARRIVAL: 19:21
FLIGHT DATA
Crew: 
Speed: 
465 kts
Altitude: 
32,035 ft
Stage Length: 
393.3 nm
Block Time: 
1.5 hrs
Flight Time: 
1.2 hrs
Fuel Used: 
8,631 lb
Cleared Route: KROW CME TCS SSO KGYR
TRACK DATA
50,000 ft 1,000 kts
AIRCRAFT INFO AND CUMULATIVE STATS
Aircraft Type: 
B738
Registration: 
SELCAL: 
MSN/LN: 
0 / 1
Total Flights: 
5
Total Block Time: 
8.6 hrs
Total Flight Time: 
7.4 hrs
Total Fuel Used: 
45,421 lb
DATALINK LOG | Newest first | Current as of: 2022-01-17 03:47:02
LABEL SEQUENCE CONTENT Dn/Up
QD480719:21 7.8▼ Dn
QC430219:15▼ Dn
2U5233KGYR 121747Z 09007KT 10SM SKC 30/06 A3002▲ Up
2S1453KGYR▼ Dn
GA1462ADVANCED GATE ASSIGNMENTS NOT YET AVAILABLE AT THIS AIRPORT▲ Up
GR1452KGYR 19:12 HI-VAL NO DIPL/VIP NO▼ Dn
5U2144KGYR 122213Z VRB06KT 9999 SKC QNH2989INS TX35/1223Z TN18/1312Z LAST NO AMDS AFT 1217 NEXT 1312 30/05 A3000▲ Up
5S3224KGYR▼ Dn
QB150618:03▼ Dn
QA465817:51 16.4▼ Dn
A33345NO MATCHING FLIGHT DATA AVAILABLE FROM ANSP▲ Up
Q03244[LINK ACK]▲ Up
Q03244[LINK TEST]▼ Dn


AIRCRAFT HISTORY
FLIGHT DATE FLIGHT NO. ORIGIN DESTINATION CLEARED ROUTE BLOCK TIME FLIGHT TIME FUEL USED PILOT
2020-11-01PFO1973KRWL KBZN KRWL CKW OCS DNW BZN KBZN1.3 hrs1.1 hrs6,222 lbMike Dryden
2020-10-18PFO1973KGYR KRWL KGYR SJN GUP DVC JNC EKR CHE HUPEG MEKWY CELIA NEDAE CKW KRWL2 hrs1.8 hrs9,006 lbMike Dryden
2020-10-16PFO1973KROW KGYR KROW CME TCS SSO KGYR1.5 hrs1.2 hrs8,631 lbMike Dryden
2020-10-15PFO1973KIAH KROW KIAH CWK LLO SJT CME KROW1.8 hrs1.5 hrs9,698 lbMike Dryden
2020-05-16PFO519KTPA KIAH 2.1 hrs1.8 hrs11,863 lbChemtrails